sensor_id;sensor_type;location;lat;lon;timestamp;pressure;altitude;pressure_sealevel;temperature;humidity
59787;BME280;45672;51.612;5.536;2023-10-13T00:01:24;101023.72;;;16.84;100.00
59787;BME280;45672;51.612;5.536;2023-10-13T00:03:50;101009.66;;;16.82;100.00
59787;BME280;45672;51.612;5.536;2023-10-13T00:06:19;101011.34;;;16.83;100.00
59787;BME280;45672;51.612;5.536;2023-10-13T00:08:45;101008.66;;;16.83;100.00
59787;BME280;45672;51.612;5.536;2023-10-13T00:11:14;101019.66;;;16.88;100.00
59787;BME280;45672;51.612;5.536;2023-10-13T00:13:40;101000.19;;;16.86;100.00
59787;BME280;45672;51.612;5.536;2023-10-13T00:16:14;101008.06;;;16.87;100.00
59787;BME280;45672;51.612;5.536;2023-10-13T00:18:42;101008.91;;;16.88;100.00
59787;BME280;45672;51.612;5.536;2023-10-13T00:21:09;100997.31;;;16.87;100.00
59787;BME280;45672;51.612;5.536;2023-10-13T00:23:44;100990.91;;;16.88;100.00
59787;BME280;45672;51.612;5.536;2023-10-13T00:26:20;100987.56;;;16.86;100.00
59787;BME280;45672;51.612;5.536;2023-10-13T00:28:49;100991.47;;;16.84;100.00
59787;BME280;45672;51.612;5.536;2023-10-13T00:31:24;100990.00;;;16.81;100.00
59787;BME280;45672;51.612;5.536;2023-10-13T00:33:51;100978.34;;;16.74;100.00
59787;BME280;45672;51.612;5.536;2023-10-13T00:36:20;100991.44;;;16.77;100.00
59787;BME280;45672;51.612;5.536;2023-10-13T00:38:46;100982.72;;;16.75;100.00
59787;BME280;45672;51.612;5.536;2023-10-13T00:41:17;100984.78;;;16.73;100.00
59787;BME280;45672;51.612;5.536;2023-10-13T00:43:47;100988.47;;;16.72;100.00
59787;BME280;45672;51.612;5.536;2023-10-13T00:46:31;100981.44;;;16.71;100.00
59787;BME280;45672;51.612;5.536;2023-10-13T00:48:58;100973.78;;;16.68;100.00
59787;BME280;45672;51.612;5.536;2023-10-13T00:51:24;100973.97;;;16.66;100.00
59787;BME280;45672;51.612;5.536;2023-10-13T00:54:06;100970.63;;;16.64;100.00
59787;BME280;45672;51.612;5.536;2023-10-13T00:56:45;100963.53;;;16.57;100.00
59787;BME280;45672;51.612;5.536;2023-10-13T00:59:23;100964.81;;;16.61;100.00
59787;BME280;45672;51.612;5.536;2023-10-13T01:01:51;100956.75;;;16.61;100.00
59787;BME280;45672;51.612;5.536;2023-10-13T01:04:21;100947.41;;;16.57;100.00
59787;BME280;45672;51.612;5.536;2023-10-13T01:06:48;100950.91;;;16.57;100.00
59787;BME280;45672;51.612;5.536;2023-10-13T01:09:14;100953.25;;;16.60;100.00
59787;BME280;45672;51.612;5.536;2023-10-13T01:11:43;100952.41;;;16.60;100.00
59787;BME280;45672;51.612;5.536;2023-10-13T01:14:10;100938.34;;;16.58;100.00
59787;BME280;45672;51.612;5.536;2023-10-13T01:16:38;100946.41;;;16.58;100.00
59787;BME280;45672;51.612;5.536;2023-10-13T01:19:10;100947.22;;;16.58;100.00
59787;BME280;45672;51.612;5.536;2023-10-13T01:21:40;100937.88;;;16.54;100.00
59787;BME280;45672;51.612;5.536;2023-10-13T01:24:06;100932.31;;;16.55;100.00
59787;BME280;45672;51.612;5.536;2023-10-13T01:26:34;100921.53;;;16.49;100.00
59787;BME280;45672;51.612;5.536;2023-10-13T01:29:04;100923.16;;;16.50;100.00
59787;BME280;45672;51.612;5.536;2023-10-13T01:31:37;100927.91;;;16.48;100.00
59787;BME280;45672;51.612;5.536;2023-10-13T01:34:02;100927.91;;;16.48;100.00
59787;BME280;45672;51.612;5.536;2023-10-13T01:36:28;100916.34;;;16.47;100.00
59787;BME280;45672;51.612;5.536;2023-10-13T01:39:00;100906.63;;;16.46;100.00
59787;BME280;45672;51.612;5.536;2023-10-13T01:41:26;100899.78;;;16.44;100.00
59787;BME280;45672;51.612;5.536;2023-10-13T01:43:52;100895.22;;;16.44;100.00
59787;BME280;45672;51.612;5.536;2023-10-13T01:46:17;100891.09;;;16.42;100.00
59787;BME280;45672;51.612;5.536;2023-10-13T01:48:47;100891.91;;;16.42;100.00
59787;BME280;45672;51.612;5.536;2023-10-13T01:51:12;100885.88;;;16.40;100.00
59787;BME280;45672;51.612;5.536;2023-10-13T01:53:38;100878.88;;;16.39;100.00
59787;BME280;45672;51.612;5.536;2023-10-13T01:56:07;100879.69;;;16.40;100.00
59787;BME280;45672;51.612;5.536;2023-10-13T01:58:37;100878.03;;;16.38;100.00
59787;BME280;45672;51.612;5.536;2023-10-13T02:01:03;100871.66;;;16.40;100.00
59787;BME280;45672;51.612;5.536;2023-10-13T02:03:29;100858.22;;;16.40;100.00
59787;BME280;45672;51.612;5.536;2023-10-13T02:05:55;100862.56;;;16.41;100.00
59787;BME280;45672;51.612;5.536;2023-10-13T02:08:24;100857.81;;;16.43;100.00
59787;BME280;45672;51.612;5.536;2023-10-13T02:10:57;100847.28;;;16.41;100.00
59787;BME280;45672;51.612;5.536;2023-10-13T02:13:24;100853.31;;;16.43;100.00
59787;BME280;45672;51.612;5.536;2023-10-13T02:15:54;100845.88;;;16.45;100.00
59787;BME280;45672;51.612;5.536;2023-10-13T02:18:22;100841.72;;;16.43;100.00
59787;BME280;45672;51.612;5.536;2023-10-13T02:21:03;100848.75;;;16.44;100.00
59787;BME280;45672;51.612;5.536;2023-10-13T02:23:37;100844.19;;;16.44;100.00
59787;BME280;45672;51.612;5.536;2023-10-13T02:26:08;100845.25;;;16.43;100.00
59787;BME280;45672;51.612;5.536;2023-10-13T02:29:00;100857.63;;;16.44;100.00
59787;BME280;45672;51.612;5.536;2023-10-13T02:31:34;100848.50;;;16.38;100.00
59787;BME280;45672;51.612;5.536;2023-10-13T02:33:59;100847.28;;;16.41;100.00
59787;BME280;45672;51.612;5.536;2023-10-13T02:36:26;100830.69;;;16.31;100.00
59787;BME280;45672;51.612;5.536;2023-10-13T02:39:04;100833.63;;;16.36;100.00
59787;BME280;45672;51.612;5.536;2023-10-13T02:41:34;100825.72;;;16.34;100.00
59787;BME280;45672;51.612;5.536;2023-10-13T02:44:03;100820.38;;;16.34;100.00
59787;BME280;45672;51.612;5.536;2023-10-13T02:46:32;100812.50;;;16.33;100.00
59787;BME280;45672;51.612;5.536;2023-10-13T02:49:01;100798.25;;;16.32;100.00
59787;BME280;45672;51.612;5.536;2023-10-13T02:51:35;100801.75;;;16.33;100.00
59787;BME280;45672;51.612;5.536;2023-10-13T02:54:01;100800.94;;;16.32;100.00
59787;BME280;45672;51.612;5.536;2023-10-13T02:56:36;100783.13;;;16.25;100.00
59787;BME280;45672;51.612;5.536;2023-10-13T02:59:02;100775.31;;;16.30;100.00
59787;BME280;45672;51.612;5.536;2023-10-13T03:01:34;100778.84;;;16.30;100.00
59787;BME280;45672;51.612;5.536;2023-10-13T03:04:01;100771.59;;;16.31;100.00
59787;BME280;45672;51.612;5.536;2023-10-13T03:06:28;100766.03;;;16.32;100.00
59787;BME280;45672;51.612;5.536;2023-10-13T03:09:02;100755.31;;;16.32;100.00
59787;BME280;45672;51.612;5.536;2023-10-13T03:11:44;100749.94;;;16.32;100.00
59787;BME280;45672;51.612;5.536;2023-10-13T03:14:20;100747.25;;;16.32;100.00
59787;BME280;45672;51.612;5.536;2023-10-13T03:17:05;100739.38;;;16.31;100.00
59787;BME280;45672;51.612;5.536;2023-10-13T03:19:32;100737.53;;;16.31;100.00
59787;BME280;45672;51.612;5.536;2023-10-13T03:22:03;100739.19;;;16.32;100.00
59787;BME280;45672;51.612;5.536;2023-10-13T03:24:36;100721.22;;;16.33;100.00
59787;BME280;45672;51.612;5.536;2023-10-13T03:27:05;100709.19;;;16.29;100.00
59787;BME280;45672;51.612;5.536;2023-10-13T03:29:40;100716.69;;;16.33;100.00
59787;BME280;45672;51.612;5.536;2023-10-13T03:32:12;100712.34;;;16.32;100.00
59787;BME280;45672;51.612;5.536;2023-10-13T03:34:40;100706.16;;;16.32;100.00
59787;BME280;45672;51.612;5.536;2023-10-13T03:37:18;100704.09;;;16.34;100.00
59787;BME280;45672;51.612;5.536;2023-10-13T03:40:02;100692.13;;;16.36;100.00
59787;BME280;45672;51.612;5.536;2023-10-13T03:42:31;100688.84;;;16.41;100.00
59787;BME280;45672;51.612;5.536;2023-10-13T03:44:57;100676.25;;;16.42;100.00
59787;BME280;45672;51.612;5.536;2023-10-13T03:47:22;100665.06;;;16.38;100.00
59787;BME280;45672;51.612;5.536;2023-10-13T03:49:57;100671.50;;;16.44;100.00
59787;BME280;45672;51.612;5.536;2023-10-13T03:52:40;100667.59;;;16.46;100.00
59787;BME280;45672;51.612;5.536;2023-10-13T03:55:06;100666.59;;;16.47;100.00
59787;BME280;45672;51.612;5.536;2023-10-13T03:57:32;100661.84;;;16.49;100.00
59787;BME280;45672;51.612;5.536;2023-10-13T04:00:03;100655.00;;;16.47;100.00
59787;BME280;45672;51.612;5.536;2023-10-13T04:02:34;100650.88;;;16.51;100.00
59787;BME280;45672;51.612;5.536;2023-10-13T04:05:01;100661.03;;;16.55;100.00
59787;BME280;45672;51.612;5.536;2023-10-13T04:07:33;100644.72;;;16.57;100.00
59787;BME280;45672;51.612;5.536;2023-10-13T04:10:06;100641.00;;;16.58;100.00
59787;BME280;45672;51.612;5.536;2023-10-13T04:12:50;100636.91;;;16.62;100.00
59787;BME280;45672;51.612;5.536;2023-10-13T04:15:34;100622.44;;;16.63;100.00
59787;BME280;45672;51.612;5.536;2023-10-13T04:18:08;100614.38;;;16.63;100.00
59787;BME280;45672;51.612;5.536;2023-10-13T04:20:55;100616.22;;;16.63;100.00
59787;BME280;45672;51.612;5.536;2023-10-13T04:23:40;100622.03;;;16.66;100.00
59787;BME280;45672;51.612;5.536;2023-10-13T04:26:25;100609.22;;;16.68;100.00
59787;BME280;45672;51.612;5.536;2023-10-13T04:29:01;100607.38;;;16.69;100.00
59787;BME280;45672;51.612;5.536;2023-10-13T04:31:35;100603.63;;;16.70;100.00
59787;BME280;45672;51.612;5.536;2023-10-13T04:34:20;100608.63;;;16.73;100.00
59787;BME280;45672;51.612;5.536;2023-10-13T04:36:53;100613.38;;;16.71;100.00
59787;BME280;45672;51.612;5.536;2023-10-13T04:39:35;100604.50;;;16.77;100.00
59787;BME280;45672;51.612;5.536;2023-10-13T04:42:03;100599.97;;;16.78;100.00
59787;BME280;45672;51.612;5.536;2023-10-13T04:44:38;100576.38;;;16.66;100.00
59787;BME280;45672;51.612;5.536;2023-10-13T04:47:07;100601.22;;;16.82;100.00
59787;BME280;45672;51.612;5.536;2023-10-13T04:49:43;100590.66;;;16.80;100.00
59787;BME280;45672;51.612;5.536;2023-10-13T04:52:09;100589.25;;;16.84;100.00
59787;BME280;45672;51.612;5.536;2023-10-13T04:54:40;100590.66;;;16.80;100.00
59787;BME280;45672;51.612;5.536;2023-10-13T04:57:21;100602.09;;;16.89;100.00
59787;BME280;45672;51.612;5.536;2023-10-13T05:00:06;100593.81;;;16.91;100.00
59787;BME280;45672;51.612;5.536;2023-10-13T05:02:39;100599.00;;;16.92;100.00
59787;BME280;45672;51.612;5.536;2023-10-13T05:05:09;100586.59;;;16.91;100.00
59787;BME280;45672;51.612;5.536;2023-10-13T05:07:45;100598.38;;;16.97;100.00
59787;BME280;45672;51.612;5.536;2023-10-13T05:10:30;100581.44;;;16.96;100.00
59787;BME280;45672;51.612;5.536;2023-10-13T05:13:31;100576.88;;;16.97;100.00
59787;BME280;45672;51.612;5.536;2023-10-13T05:16:15;100579.34;;;16.98;100.00
59787;BME280;45672;51.612;5.536;2023-10-13T05:18:58;100564.28;;;16.97;100.00
59787;BME280;45672;51.612;5.536;2023-10-13T05:21:43;100581.84;;;17.00;100.00
59787;BME280;45672;51.612;5.536;2023-10-13T05:24:28;100553.31;;;16.99;100.00
59787;BME280;45672;51.612;5.536;2023-10-13T05:27:12;100526.44;;;16.92;100.00
59787;BME280;45672;51.612;5.536;2023-10-13T05:29:56;100510.31;;;16.99;100.00
59787;BME280;45672;51.612;5.536;2023-10-13T05:32:40;100514.66;;;16.93;100.00
59787;BME280;45672;51.612;5.536;2023-10-13T05:35:24;100504.94;;;16.92;100.00
59787;BME280;45672;51.612;5.536;2023-10-13T05:38:08;100508.22;;;16.94;100.00
59787;BME280;45672;51.612;5.536;2023-10-13T05:41:03;100517.97;;;16.95;100.00
59787;BME280;45672;51.612;5.536;2023-10-13T05:43:47;100527.47;;;16.98;100.00
59787;BME280;45672;51.612;5.536;2023-10-13T05:46:32;100511.56;;;16.96;100.00
59787;BME280;45672;51.612;5.536;2023-10-13T05:49:14;100508.66;;;16.91;100.00
59787;BME280;45672;51.612;5.536;2023-10-13T05:51:42;100509.47;;;16.98;100.00
59787;BME280;45672;51.612;5.536;2023-10-13T05:54:17;100511.97;;;17.00;100.00
59787;BME280;45672;51.612;5.536;2023-10-13T05:56:50;100512.81;;;17.00;100.00
59787;BME280;45672;51.612;5.536;2023-10-13T05:59:36;100523.75;;;16.99;100.00
59787;BME280;45672;51.612;5.536;2023-10-13T06:02:21;100512.81;;;17.00;100.00
59787;BME280;45672;51.612;5.536;2023-10-13T06:07:51;100512.81;;;17.00;100.00
59787;BME280;45672;51.612;5.536;2023-10-13T06:10:35;100512.81;;;17.00;100.00
59787;BME280;45672;51.612;5.536;2023-10-13T06:13:19;100504.94;;;16.99;100.00
59787;BME280;45672;51.612;5.536;2023-10-13T06:18:50;100503.69;;;16.95;100.00
59787;BME280;45672;51.612;5.536;2023-10-13T06:21:34;100511.34;;;16.98;100.00
59787;BME280;45672;51.612;5.536;2023-10-13T06:24:18;100502.03;;;16.94;100.00
59787;BME280;45672;51.612;5.536;2023-10-13T06:27:02;100515.28;;;16.95;100.00
59787;BME280;45672;51.612;5.536;2023-10-13T06:29:46;100512.38;;;16.90;100.00
59787;BME280;45672;51.612;5.536;2023-10-13T06:32:12;100510.91;;;16.94;100.00
59787;BME280;45672;51.612;5.536;2023-10-13T06:34:38;100510.09;;;16.94;100.00
59787;BME280;45672;51.612;5.536;2023-10-13T06:37:10;100503.28;;;16.91;100.00
59787;BME280;45672;51.612;5.536;2023-10-13T06:39:50;100488.56;;;16.87;100.00
59787;BME280;45672;51.612;5.536;2023-10-13T06:42:16;100490.03;;;16.89;100.00
59787;BME280;45672;51.612;5.536;2023-10-13T06:44:43;100484.66;;;16.89;100.00
59787;BME280;45672;51.612;5.536;2023-10-13T06:47:11;100487.56;;;16.88;100.00
59787;BME280;45672;51.612;5.536;2023-10-13T06:49:37;100481.56;;;16.86;100.00
59787;BME280;45672;51.612;5.536;2023-10-13T06:52:05;100473.69;;;16.84;100.00
59787;BME280;45672;51.612;5.536;2023-10-13T06:54:32;100475.53;;;16.84;100.00
59787;BME280;45672;51.612;5.536;2023-10-13T06:57:00;100473.25;;;16.81;100.00
59787;BME280;45672;51.612;5.536;2023-10-13T06:59:25;100462.09;;;16.84;100.00
59787;BME280;45672;51.612;5.536;2023-10-13T07:02:00;100462.75;;;16.86;100.00
59787;BME280;45672;51.612;5.536;2023-10-13T07:04:34;100462.34;;;16.89;100.00
59787;BME280;45672;51.612;5.536;2023-10-13T07:07:05;100451.59;;;16.89;100.00
59787;BME280;45672;51.612;5.536;2023-10-13T07:09:31;100452.22;;;16.91;100.00
59787;BME280;45672;51.612;5.536;2023-10-13T07:12:00;100451.19;;;16.92;100.00
59787;BME280;45672;51.612;5.536;2023-10-13T07:14:29;100438.34;;;16.94;100.00
59787;BME280;45672;51.612;5.536;2023-10-13T07:17:02;100440.88;;;16.96;100.00
59787;BME280;45672;51.612;5.536;2023-10-13T07:19:29;100428.84;;;16.98;100.00
59787;BME280;45672;51.612;5.536;2023-10-13T07:21:59;100435.69;;;17.01;100.00
59787;BME280;45672;51.612;5.536;2023-10-13T07:24:27;100428.03;;;17.04;100.00
59787;BME280;45672;51.612;5.536;2023-10-13T07:26:57;100419.75;;;17.06;100.00
59787;BME280;45672;51.612;5.536;2023-10-13T07:29:31;100397.63;;;17.04;100.00
59787;BME280;45672;51.612;5.536;2023-10-13T07:31:59;100406.50;;;17.11;100.00
59787;BME280;45672;51.612;5.536;2023-10-13T07:34:28;100406.94;;;17.15;100.00
59787;BME280;45672;51.612;5.536;2023-10-13T07:36:57;100406.94;;;17.21;100.00
59787;BME280;45672;51.612;5.536;2023-10-13T07:39:29;100405.25;;;17.27;100.00
59787;BME280;45672;51.612;5.536;2023-10-13T07:41:59;100417.84;;;17.33;100.00
59787;BME280;45672;51.612;5.536;2023-10-13T07:44:44;100423.44;;;17.38;100.00
59787;BME280;45672;51.612;5.536;2023-10-13T07:47:12;100417.22;;;17.45;100.00
59787;BME280;45672;51.612;5.536;2023-10-13T07:49:40;100431.25;;;17.53;100.00
59787;BME280;45672;51.612;5.536;2023-10-13T07:52:10;100411.97;;;17.63;100.00
59787;BME280;45672;51.612;5.536;2023-10-13T07:54:55;100394.38;;;17.67;100.00
59787;BME280;45672;51.612;5.536;2023-10-13T07:57:25;100408.63;;;17.74;100.00
59787;BME280;45672;51.612;5.536;2023-10-13T07:59:55;100396.19;;;17.73;100.00
59787;BME280;45672;51.612;5.536;2023-10-13T08:02:32;100404.47;;;17.79;100.00
59787;BME280;45672;51.612;5.536;2023-10-13T08:05:17;100386.84;;;17.83;100.00
59787;BME280;45672;51.612;5.536;2023-10-13T08:08:07;100406.94;;;17.87;100.00
59787;BME280;45672;51.612;5.536;2023-10-13T08:10:40;100378.94;;;17.88;100.00
59787;BME280;45672;51.612;5.536;2023-10-13T08:13:07;100396.34;;;17.92;100.00
59787;BME280;45672;51.612;5.536;2023-10-13T08:15:40;100382.28;;;17.90;100.00
59787;BME280;45672;51.612;5.536;2023-10-13T08:18:12;100386.56;;;18.04;100.00
59787;BME280;45672;51.612;5.536;2023-10-13T08:20:45;100392.94;;;18.10;100.00
59787;BME280;45672;51.612;5.536;2023-10-13T08:23:10;100390.00;;;18.18;100.00
59787;BME280;45672;51.612;5.536;2023-10-13T08:25:39;100399.63;;;18.39;100.00
59787;BME280;45672;51.612;5.536;2023-10-13T08:28:23;100405.38;;;18.75;100.00
59787;BME280;45672;51.612;5.536;2023-10-13T08:31:07;100410.88;;;19.12;100.00
59787;BME280;45672;51.612;5.536;2023-10-13T08:33:48;100394.63;;;19.37;100.00
59787;BME280;45672;51.612;5.536;2023-10-13T08:36:14;100398.44;;;19.48;100.00
59787;BME280;45672;51.612;5.536;2023-10-13T08:38:56;100395.69;;;19.36;100.00
59787;BME280;45672;51.612;5.536;2023-10-13T08:41:23;100378.81;;;19.22;100.00
59787;BME280;45672;51.612;5.536;2023-10-13T08:43:49;100346.66;;;19.02;100.00
59787;BME280;45672;51.612;5.536;2023-10-13T08:46:18;100366.34;;;19.03;100.00
59787;BME280;45672;51.612;5.536;2023-10-13T08:48:54;100379.31;;;19.12;100.00
59787;BME280;45672;51.612;5.536;2023-10-13T08:51:31;100379.03;;;19.39;100.00
59787;BME280;45672;51.612;5.536;2023-10-13T08:54:13;100377.91;;;20.14;100.00
59787;BME280;45672;51.612;5.536;2023-10-13T08:56:47;100379.88;;;20.07;100.00
59787;BME280;45672;51.612;5.536;2023-10-13T08:59:21;100371.84;;;19.70;100.00
59787;BME280;45672;51.612;5.536;2023-10-13T09:02:12;100370.25;;;19.44;100.00
59787;BME280;45672;51.612;5.536;2023-10-13T09:04:43;100360.38;;;19.38;100.00
59787;BME280;45672;51.612;5.536;2023-10-13T09:07:12;100361.88;;;19.52;100.00
59787;BME280;45672;51.612;5.536;2023-10-13T09:12:14;100354.47;;;19.48;100.00
59787;BME280;45672;51.612;5.536;2023-10-13T09:14:43;100352.41;;;19.43;100.00
59787;BME280;45672;51.612;5.536;2023-10-13T09:17:19;100348.91;;;19.42;100.00
59787;BME280;45672;51.612;5.536;2023-10-13T09:19:46;100350.34;;;19.45;100.00
59787;BME280;45672;51.612;5.536;2023-10-13T09:22:27;100354.47;;;19.48;100.00
59787;BME280;45672;51.612;5.536;2023-10-13T09:24:57;100353.78;;;19.52;100.00
59787;BME280;45672;51.612;5.536;2023-10-13T09:27:26;100349.81;;;19.55;100.00
59787;BME280;45672;51.612;5.536;2023-10-13T09:29:56;100354.75;;;19.58;100.00
59787;BME280;45672;51.612;5.536;2023-10-13T09:32:21;100339.38;;;19.58;100.00
59787;BME280;45672;51.612;5.536;2023-10-13T09:34:47;100351.13;;;19.64;100.00
59787;BME280;45672;51.612;5.536;2023-10-13T09:37:15;100342.00;;;19.65;100.00
59787;BME280;45672;51.612;5.536;2023-10-13T09:39:46;100351.88;;;19.71;100.00
59787;BME280;45672;51.612;5.536;2023-10-13T09:42:17;100355.41;;;19.72;100.00
59787;BME280;45672;51.612;5.536;2023-10-13T09:44:43;100347.38;;;19.84;100.00
59787;BME280;45672;51.612;5.536;2023-10-13T09:47:20;100339.31;;;19.95;100.00
59787;BME280;45672;51.612;5.536;2023-10-13T09:49:49;100348.06;;;20.09;100.00
59787;BME280;45672;51.612;5.536;2023-10-13T09:52:19;100328.34;;;20.09;100.00
59787;BME280;45672;51.612;5.536;2023-10-13T09:57:34;100329.47;;;20.01;100.00
59787;BME280;45672;51.612;5.536;2023-10-13T10:00:20;100327.50;;;20.08;100.00
59787;BME280;45672;51.612;5.536;2023-10-13T10:03:06;100337.31;;;20.33;100.00
59787;BME280;45672;51.612;5.536;2023-10-13T10:05:55;100319.81;;;20.59;100.00
59787;BME280;45672;51.612;5.536;2023-10-13T10:08:28;100324.00;;;20.74;100.00
59787;BME280;45672;51.612;5.536;2023-10-13T10:16:47;100305.03;;;20.62;100.00
59787;BME280;45672;51.612;5.536;2023-10-13T10:19:16;100307.50;;;20.52;100.00
59787;BME280;45672;51.612;5.536;2023-10-13T10:21:43;100306.06;;;20.37;100.00
59787;BME280;45672;51.612;5.536;2023-10-13T10:24:24;100297.59;;;20.33;100.00
59787;BME280;45672;51.612;5.536;2023-10-13T10:26:55;100305.59;;;20.28;100.00
59787;BME280;45672;51.612;5.536;2023-10-13T10:29:21;100293.84;;;20.23;100.00
59787;BME280;45672;51.612;5.536;2023-10-13T10:31:47;100304.88;;;20.21;100.00
59787;BME280;45672;51.612;5.536;2023-10-13T10:34:16;100287.84;;;20.21;100.00
59787;BME280;45672;51.612;5.536;2023-10-13T10:36:53;100270.22;;;20.18;100.00
59787;BME280;45672;51.612;5.536;2023-10-13T10:39:39;100271.16;;;20.24;100.00
59787;BME280;45672;51.612;5.536;2023-10-13T10:42:14;100267.06;;;20.33;100.00
59787;BME280;45672;51.612;5.536;2023-10-13T10:44:54;100268.59;;;20.41;100.00
59787;BME280;45672;51.612;5.536;2023-10-13T10:47:30;100276.59;;;20.47;100.00
59787;BME280;45672;51.612;5.536;2023-10-13T10:50:00;100274.47;;;20.49;100.00
59787;BME280;45672;51.612;5.536;2023-10-13T10:52:32;100278.47;;;20.59;100.00
59787;BME280;45672;51.612;5.536;2023-10-13T10:55:03;100280.69;;;20.62;100.00
59787;BME280;45672;51.612;5.536;2023-10-13T10:57:39;100275.03;;;20.63;100.00
59787;BME280;45672;51.612;5.536;2023-10-13T11:00:19;100256.13;;;20.63;100.00
59787;BME280;45672;51.612;5.536;2023-10-13T11:03:05;100261.94;;;20.67;100.00
59787;BME280;45672;51.612;5.536;2023-10-13T11:05:30;100286.69;;;20.88;100.00
59787;BME280;45672;51.612;5.536;2023-10-13T11:07:58;100279.63;;;20.98;100.00
59787;BME280;45672;51.612;5.536;2023-10-13T11:10:24;100287.97;;;21.09;99.52
59787;BME280;45672;51.612;5.536;2023-10-13T11:12:57;100266.19;;;21.15;99.66
59787;BME280;45672;51.612;5.536;2023-10-13T11:15:43;100280.03;;;21.31;98.42
59787;BME280;45672;51.612;5.536;2023-10-13T11:18:12;100263.41;;;21.39;97.17
59787;BME280;45672;51.612;5.536;2023-10-13T11:20:47;100255.13;;;21.46;96.35
59787;BME280;45672;51.612;5.536;2023-10-13T11:23:19;100242.66;;;21.45;97.24
59787;BME280;45672;51.612;5.536;2023-10-13T11:25:56;100244.94;;;21.36;98.13
59787;BME280;45672;51.612;5.536;2023-10-13T11:28:21;100232.63;;;21.28;97.21
59787;BME280;45672;51.612;5.536;2023-10-13T11:30:54;100240.97;;;21.27;97.16
59787;BME280;45672;51.612;5.536;2023-10-13T11:33:24;100234.59;;;21.33;98.89
59787;BME280;45672;51.612;5.536;2023-10-13T11:35:51;100224.00;;;21.31;98.48
59787;BME280;45672;51.612;5.536;2023-10-13T11:43:37;100210.25;;;21.62;96.56
59787;BME280;45672;51.612;5.536;2023-10-13T11:46:10;100214.75;;;21.73;95.05
59787;BME280;45672;51.612;5.536;2023-10-13T11:48:35;100203.03;;;21.84;93.81
59787;BME280;45672;51.612;5.536;2023-10-13T11:51:05;100192.94;;;21.97;92.77
59787;BME280;45672;51.612;5.536;2023-10-13T11:53:34;100199.88;;;22.04;92.27
59787;BME280;45672;51.612;5.536;2023-10-13T11:56:01;100179.56;;;22.07;92.09
59787;BME280;45672;51.612;5.536;2023-10-13T11:58:26;100189.59;;;22.07;90.79
59787;BME280;45672;51.612;5.536;2023-10-13T12:00:54;100186.06;;;22.06;90.71
59787;BME280;45672;51.612;5.536;2023-10-13T12:03:26;100173.00;;;22.03;89.59
59787;BME280;45672;51.612;5.536;2023-10-13T12:06:10;100170.78;;;22.00;89.09
59787;BME280;45672;51.612;5.536;2023-10-13T12:08:48;100174.97;;;22.08;87.53
59787;BME280;45672;51.612;5.536;2023-10-13T12:11:17;100168.81;;;22.12;87.47
59787;BME280;45672;51.612;5.536;2023-10-13T12:14:03;100168.06;;;22.17;87.20
59787;BME280;45672;51.612;5.536;2023-10-13T12:16:42;100160.56;;;22.24;86.74
59787;BME280;45672;51.612;5.536;2023-10-13T12:19:07;100157.13;;;22.29;85.83
59787;BME280;45672;51.612;5.536;2023-10-13T12:21:36;100159.34;;;22.32;86.59
59787;BME280;45672;51.612;5.536;2023-10-13T12:24:03;100173.56;;;22.39;85.61
59787;BME280;45672;51.612;5.536;2023-10-13T12:26:28;100166.88;;;22.47;85.42
59787;BME280;45672;51.612;5.536;2023-10-13T12:28:58;100168.81;;;22.51;85.73
59787;BME280;45672;51.612;5.536;2023-10-13T12:31:32;100160.69;;;22.51;85.09
59787;BME280;45672;51.612;5.536;2023-10-13T12:33:58;100168.38;;;22.60;82.85
59787;BME280;45672;51.612;5.536;2023-10-13T12:36:32;100174.41;;;22.62;84.10
59787;BME280;45672;51.612;5.536;2023-10-13T12:39:06;100165.16;;;22.63;84.58
59787;BME280;45672;51.612;5.536;2023-10-13T12:41:31;100172.50;;;22.62;82.65
59787;BME280;45672;51.612;5.536;2023-10-13T12:44:15;100172.19;;;22.59;85.06
59787;BME280;45672;51.612;5.536;2023-10-13T12:46:59;100151.75;;;22.51;85.57
59787;BME280;45672;51.612;5.536;2023-10-13T12:49:43;100159.84;;;22.46;84.67
59787;BME280;45672;51.612;5.536;2023-10-13T12:52:17;100166.63;;;22.48;85.34
59787;BME280;45672;51.612;5.536;2023-10-13T12:54:46;100146.56;;;22.49;83.52
59787;BME280;45672;51.612;5.536;2023-10-13T12:57:15;100151.88;;;22.61;82.41
59787;BME280;45672;51.612;5.536;2023-10-13T12:59:41;100159.53;;;22.64;81.19
59787;BME280;45672;51.612;5.536;2023-10-13T13:02:07;100151.38;;;22.64;80.08
59787;BME280;45672;51.612;5.536;2023-10-13T13:04:33;100140.22;;;22.61;80.78
59787;BME280;45672;51.612;5.536;2023-10-13T13:07:02;100149.16;;;22.61;81.02
59787;BME280;45672;51.612;5.536;2023-10-13T13:09:29;100151.38;;;22.64;78.88
59787;BME280;45672;51.612;5.536;2023-10-13T13:11:56;100138.06;;;22.63;80.53
59787;BME280;45672;51.612;5.536;2023-10-13T13:14:28;100153.78;;;22.61;78.89
59787;BME280;45672;51.612;5.536;2023-10-13T13:16:59;100142.38;;;22.59;79.87
59787;BME280;45672;51.612;5.536;2023-10-13T13:19:34;100135.56;;;22.56;78.28
59787;BME280;45672;51.612;5.536;2023-10-13T13:22:06;100133.66;;;22.57;77.97
59787;BME280;45672;51.612;5.536;2023-10-13T13:24:39;100138.25;;;22.56;76.43
59787;BME280;45672;51.612;5.536;2023-10-13T13:27:15;100144.50;;;22.57;77.75
59787;BME280;45672;51.612;5.536;2023-10-13T13:29:43;100138.00;;;22.58;76.94
59787;BME280;45672;51.612;5.536;2023-10-13T13:32:09;100130.19;;;22.61;76.37
59787;BME280;45672;51.612;5.536;2023-10-13T13:34:44;100134.03;;;22.65;76.48